sensor_id;sensor_type;location;lat;lon;timestamp;P1;durP1;ratioP1;P2;durP2;ratioP2
3369;SDS011;42042;51.948;7.628;2023-04-25T00:01:53;16.83;;;7.60;;
3369;SDS011;42042;51.948;7.628;2023-04-25T00:04:21;16.58;;;7.28;;
3369;SDS011;42042;51.948;7.628;2023-04-25T00:06:48;16.75;;;7.30;;
3369;SDS011;42042;51.948;7.628;2023-04-25T00:09:17;15.07;;;5.80;;
3369;SDS011;42042;51.948;7.628;2023-04-25T00:11:44;13.23;;;6.72;;
3369;SDS011;42042;51.948;7.628;2023-04-25T00:14:13;15.15;;;6.47;;
3369;SDS011;42042;51.948;7.628;2023-04-25T00:16:41;13.40;;;6.55;;
3369;SDS011;42042;51.948;7.628;2023-04-25T00:19:09;16.55;;;7.80;;
3369;SDS011;42042;51.948;7.628;2023-04-25T00:21:36;12.13;;;6.38;;
3369;SDS011;42042;51.948;7.628;2023-04-25T00:24:05;17.52;;;7.43;;
3369;SDS011;42042;51.948;7.628;2023-04-25T00:26:33;13.18;;;8.18;;
3369;SDS011;42042;51.948;7.628;2023-04-25T00:29:00;14.07;;;7.55;;
3369;SDS011;42042;51.948;7.628;2023-04-25T00:31:29;14.10;;;6.85;;
3369;SDS011;42042;51.948;7.628;2023-04-25T00:33:56;17.70;;;7.18;;
3369;SDS011;42042;51.948;7.628;2023-04-25T00:36:23;9.85;;;7.20;;
3369;SDS011;42042;51.948;7.628;2023-04-25T00:38:51;11.13;;;7.10;;
3369;SDS011;42042;51.948;7.628;2023-04-25T00:41:19;17.33;;;8.00;;
3369;SDS011;42042;51.948;7.628;2023-04-25T00:43:47;13.48;;;6.60;;
3369;SDS011;42042;51.948;7.628;2023-04-25T00:46:15;9.25;;;7.05;;
3369;SDS011;42042;51.948;7.628;2023-04-25T00:48:43;11.32;;;6.63;;
3369;SDS011;42042;51.948;7.628;2023-04-25T00:51:11;8.98;;;6.88;;
3369;SDS011;42042;51.948;7.628;2023-04-25T00:53:40;12.40;;;6.47;;
3369;SDS011;42042;51.948;7.628;2023-04-25T00:56:07;17.33;;;6.85;;
3369;SDS011;42042;51.948;7.628;2023-04-25T00:58:34;10.57;;;7.18;;
3369;SDS011;42042;51.948;7.628;2023-04-25T01:01:02;8.98;;;6.05;;
3369;SDS011;42042;51.948;7.628;2023-04-25T01:03:29;12.98;;;6.38;;
3369;SDS011;42042;51.948;7.628;2023-04-25T01:05:58;11.82;;;6.03;;
3369;SDS011;42042;51.948;7.628;2023-04-25T01:08:26;14.60;;;6.13;;
3369;SDS011;42042;51.948;7.628;2023-04-25T01:10:53;21.88;;;7.28;;
3369;SDS011;42042;51.948;7.628;2023-04-25T01:13:20;14.77;;;6.30;;
3369;SDS011;42042;51.948;7.628;2023-04-25T01:15:47;10.80;;;5.88;;
3369;SDS011;42042;51.948;7.628;2023-04-25T01:18:14;11.25;;;6.32;;
3369;SDS011;42042;51.948;7.628;2023-04-25T01:20:42;8.75;;;5.60;;
3369;SDS011;42042;51.948;7.628;2023-04-25T01:23:10;8.02;;;5.93;;
3369;SDS011;42042;51.948;7.628;2023-04-25T01:25:38;14.88;;;7.47;;
3369;SDS011;42042;51.948;7.628;2023-04-25T01:28:05;11.32;;;5.60;;
3369;SDS011;42042;51.948;7.628;2023-04-25T01:30:32;10.05;;;6.15;;
3369;SDS011;42042;51.948;7.628;2023-04-25T01:33:00;10.23;;;6.10;;
3369;SDS011;42042;51.948;7.628;2023-04-25T01:35:28;7.93;;;5.68;;
3369;SDS011;42042;51.948;7.628;2023-04-25T01:37:55;8.90;;;5.50;;
3369;SDS011;42042;51.948;7.628;2023-04-25T01:40:23;8.50;;;5.50;;
3369;SDS011;42042;51.948;7.628;2023-04-25T01:42:51;12.50;;;5.78;;
3369;SDS011;42042;51.948;7.628;2023-04-25T01:45:18;9.52;;;5.80;;
3369;SDS011;42042;51.948;7.628;2023-04-25T01:47:45;7.97;;;5.85;;
3369;SDS011;42042;51.948;7.628;2023-04-25T01:50:14;10.65;;;5.95;;
3369;SDS011;42042;51.948;7.628;2023-04-25T01:52:41;10.63;;;5.55;;
3369;SDS011;42042;51.948;7.628;2023-04-25T01:55:09;13.80;;;6.55;;
3369;SDS011;42042;51.948;7.628;2023-04-25T01:57:37;12.20;;;5.45;;
3369;SDS011;42042;51.948;7.628;2023-04-25T02:00:05;13.00;;;5.80;;
3369;SDS011;42042;51.948;7.628;2023-04-25T02:02:33;8.15;;;4.78;;
3369;SDS011;42042;51.948;7.628;2023-04-25T02:05:00;9.57;;;6.55;;
3369;SDS011;42042;51.948;7.628;2023-04-25T02:07:28;5.90;;;5.10;;
3369;SDS011;42042;51.948;7.628;2023-04-25T02:09:55;13.65;;;5.47;;
3369;SDS011;42042;51.948;7.628;2023-04-25T02:12:22;18.30;;;5.47;;
3369;SDS011;42042;51.948;7.628;2023-04-25T02:14:52;12.93;;;6.05;;
3369;SDS011;42042;51.948;7.628;2023-04-25T02:17:19;13.32;;;6.22;;
3369;SDS011;42042;51.948;7.628;2023-04-25T02:19:47;15.38;;;5.03;;
3369;SDS011;42042;51.948;7.628;2023-04-25T02:22:15;14.13;;;5.45;;
3369;SDS011;42042;51.948;7.628;2023-04-25T02:24:42;13.10;;;4.70;;
3369;SDS011;42042;51.948;7.628;2023-04-25T02:27:09;8.27;;;4.93;;
3369;SDS011;42042;51.948;7.628;2023-04-25T02:29:36;11.05;;;5.15;;
3369;SDS011;42042;51.948;7.628;2023-04-25T02:32:05;16.83;;;5.05;;
3369;SDS011;42042;51.948;7.628;2023-04-25T02:34:32;15.68;;;5.18;;
3369;SDS011;42042;51.948;7.628;2023-04-25T02:36:59;16.08;;;4.95;;
3369;SDS011;42042;51.948;7.628;2023-04-25T02:39:26;15.95;;;5.70;;
3369;SDS011;42042;51.948;7.628;2023-04-25T02:41:54;13.75;;;5.40;;
3369;SDS011;42042;51.948;7.628;2023-04-25T02:44:21;15.57;;;4.95;;
3369;SDS011;42042;51.948;7.628;2023-04-25T02:46:48;13.35;;;5.57;;
3369;SDS011;42042;51.948;7.628;2023-04-25T02:49:16;20.23;;;5.30;;
3369;SDS011;42042;51.948;7.628;2023-04-25T02:51:44;19.00;;;4.90;;
3369;SDS011;42042;51.948;7.628;2023-04-25T02:54:11;17.13;;;6.00;;
3369;SDS011;42042;51.948;7.628;2023-04-25T02:56:38;21.92;;;6.90;;
3369;SDS011;42042;51.948;7.628;2023-04-25T02:59:05;14.45;;;5.10;;
3369;SDS011;42042;51.948;7.628;2023-04-25T03:01:32;21.83;;;5.50;;
3369;SDS011;42042;51.948;7.628;2023-04-25T03:04:00;25.40;;;5.60;;
3369;SDS011;42042;51.948;7.628;2023-04-25T03:06:28;14.35;;;6.10;;
3369;SDS011;42042;51.948;7.628;2023-04-25T03:08:55;26.42;;;5.85;;
3369;SDS011;42042;51.948;7.628;2023-04-25T03:11:24;14.32;;;6.05;;
3369;SDS011;42042;51.948;7.628;2023-04-25T03:13:51;11.75;;;5.25;;
3369;SDS011;42042;51.948;7.628;2023-04-25T03:16:19;17.70;;;6.75;;
3369;SDS011;42042;51.948;7.628;2023-04-25T03:18:46;26.05;;;6.43;;
3369;SDS011;42042;51.948;7.628;2023-04-25T03:21:14;26.70;;;6.00;;
3369;SDS011;42042;51.948;7.628;2023-04-25T03:23:43;20.65;;;6.32;;
3369;SDS011;42042;51.948;7.628;2023-04-25T03:26:10;16.10;;;5.70;;
3369;SDS011;42042;51.948;7.628;2023-04-25T03:28:37;16.77;;;5.38;;
3369;SDS011;42042;51.948;7.628;2023-04-25T03:31:05;18.55;;;6.35;;
3369;SDS011;42042;51.948;7.628;2023-04-25T03:33:32;17.60;;;5.18;;
3369;SDS011;42042;51.948;7.628;2023-04-25T03:35:59;17.38;;;6.25;;
3369;SDS011;42042;51.948;7.628;2023-04-25T03:38:27;15.82;;;5.47;;
3369;SDS011;42042;51.948;7.628;2023-04-25T03:40:55;17.75;;;5.00;;
3369;SDS011;42042;51.948;7.628;2023-04-25T03:43:22;18.58;;;6.40;;
3369;SDS011;42042;51.948;7.628;2023-04-25T03:45:50;17.70;;;6.70;;
3369;SDS011;42042;51.948;7.628;2023-04-25T03:48:17;20.45;;;5.45;;
3369;SDS011;42042;51.948;7.628;2023-04-25T03:50:46;9.52;;;4.80;;
3369;SDS011;42042;51.948;7.628;2023-04-25T03:53:13;11.32;;;5.75;;
3369;SDS011;42042;51.948;7.628;2023-04-25T03:55:40;38.97;;;7.38;;
3369;SDS011;42042;51.948;7.628;2023-04-25T03:58:09;20.48;;;5.70;;
3369;SDS011;42042;51.948;7.628;2023-04-25T04:00:36;12.82;;;5.20;;
3369;SDS011;42042;51.948;7.628;2023-04-25T04:03:03;22.40;;;6.18;;
3369;SDS011;42042;51.948;7.628;2023-04-25T04:05:31;14.77;;;5.40;;
3369;SDS011;42042;51.948;7.628;2023-04-25T04:07:58;19.05;;;6.50;;
3369;SDS011;42042;51.948;7.628;2023-04-25T04:10:25;23.98;;;6.97;;
3369;SDS011;42042;51.948;7.628;2023-04-25T04:12:52;21.33;;;5.70;;
3369;SDS011;42042;51.948;7.628;2023-04-25T04:15:21;19.23;;;5.80;;
3369;SDS011;42042;51.948;7.628;2023-04-25T04:17:48;24.23;;;7.10;;
3369;SDS011;42042;51.948;7.628;2023-04-25T04:20:16;32.15;;;7.25;;
3369;SDS011;42042;51.948;7.628;2023-04-25T04:22:43;18.38;;;6.50;;
3369;SDS011;42042;51.948;7.628;2023-04-25T04:25:10;21.88;;;5.97;;
3369;SDS011;42042;51.948;7.628;2023-04-25T04:27:37;17.73;;;6.32;;
3369;SDS011;42042;51.948;7.628;2023-04-25T04:30:06;24.20;;;6.28;;
3369;SDS011;42042;51.948;7.628;2023-04-25T04:32:34;23.20;;;5.90;;
3369;SDS011;42042;51.948;7.628;2023-04-25T04:35:02;12.43;;;6.25;;
3369;SDS011;42042;51.948;7.628;2023-04-25T04:37:31;21.00;;;6.47;;
3369;SDS011;42042;51.948;7.628;2023-04-25T04:39:58;12.68;;;6.35;;
3369;SDS011;42042;51.948;7.628;2023-04-25T04:42:30;15.20;;;5.80;;
3369;SDS011;42042;51.948;7.628;2023-04-25T04:44:57;22.65;;;6.03;;
3369;SDS011;42042;51.948;7.628;2023-04-25T04:47:26;33.53;;;8.02;;
3369;SDS011;42042;51.948;7.628;2023-04-25T04:49:58;17.17;;;6.53;;
3369;SDS011;42042;51.948;7.628;2023-04-25T04:52:25;18.50;;;6.20;;
3369;SDS011;42042;51.948;7.628;2023-04-25T04:54:53;25.45;;;6.90;;
3369;SDS011;42042;51.948;7.628;2023-04-25T04:57:20;19.58;;;6.72;;
3369;SDS011;42042;51.948;7.628;2023-04-25T04:59:47;12.85;;;5.72;;
3369;SDS011;42042;51.948;7.628;2023-04-25T05:02:15;18.88;;;7.13;;
3369;SDS011;42042;51.948;7.628;2023-04-25T05:04:42;18.00;;;6.35;;
3369;SDS011;42042;51.948;7.628;2023-04-25T05:07:11;24.92;;;7.40;;
3369;SDS011;42042;51.948;7.628;2023-04-25T05:09:38;16.73;;;5.68;;
3369;SDS011;42042;51.948;7.628;2023-04-25T05:12:05;19.50;;;6.65;;
3369;SDS011;42042;51.948;7.628;2023-04-25T05:14:33;15.25;;;6.50;;
3369;SDS011;42042;51.948;7.628;2023-04-25T05:17:00;9.98;;;5.30;;
3369;SDS011;42042;51.948;7.628;2023-04-25T05:19:29;20.35;;;6.53;;
3369;SDS011;42042;51.948;7.628;2023-04-25T05:21:56;32.60;;;7.43;;
3369;SDS011;42042;51.948;7.628;2023-04-25T05:24:25;14.98;;;5.90;;
3369;SDS011;42042;51.948;7.628;2023-04-25T05:26:52;14.75;;;6.72;;
3369;SDS011;42042;51.948;7.628;2023-04-25T05:29:20;26.45;;;6.55;;
3369;SDS011;42042;51.948;7.628;2023-04-25T05:31:47;15.38;;;6.35;;
3369;SDS011;42042;51.948;7.628;2023-04-25T05:34:14;13.27;;;5.85;;
3369;SDS011;42042;51.948;7.628;2023-04-25T05:36:41;17.95;;;7.65;;
3369;SDS011;42042;51.948;7.628;2023-04-25T05:39:09;14.60;;;5.82;;
3369;SDS011;42042;51.948;7.628;2023-04-25T05:41:37;17.63;;;5.70;;
3369;SDS011;42042;51.948;7.628;2023-04-25T05:44:04;22.15;;;6.03;;
3369;SDS011;42042;51.948;7.628;2023-04-25T05:46:32;17.67;;;5.75;;
3369;SDS011;42042;51.948;7.628;2023-04-25T05:48:59;13.00;;;4.65;;
3369;SDS011;42042;51.948;7.628;2023-04-25T05:51:26;14.63;;;4.97;;
3369;SDS011;42042;51.948;7.628;2023-04-25T05:53:53;12.32;;;4.88;;
3369;SDS011;42042;51.948;7.628;2023-04-25T05:56:20;15.13;;;4.80;;
3369;SDS011;42042;51.948;7.628;2023-04-25T05:58:49;9.05;;;5.28;;
3369;SDS011;42042;51.948;7.628;2023-04-25T06:01:16;23.25;;;6.35;;
3369;SDS011;42042;51.948;7.628;2023-04-25T06:03:43;16.27;;;5.57;;
3369;SDS011;42042;51.948;7.628;2023-04-25T06:06:11;15.82;;;4.50;;
3369;SDS011;42042;51.948;7.628;2023-04-25T06:08:38;15.52;;;4.90;;
3369;SDS011;42042;51.948;7.628;2023-04-25T06:11:05;13.30;;;5.85;;
3369;SDS011;42042;51.948;7.628;2023-04-25T06:13:32;12.13;;;4.57;;
3369;SDS011;42042;51.948;7.628;2023-04-25T06:16:01;11.90;;;4.68;;
3369;SDS011;42042;51.948;7.628;2023-04-25T06:18:28;15.80;;;4.53;;
3369;SDS011;42042;51.948;7.628;2023-04-25T06:20:55;20.08;;;4.93;;
3369;SDS011;42042;51.948;7.628;2023-04-25T06:23:22;13.75;;;5.13;;
3369;SDS011;42042;51.948;7.628;2023-04-25T06:25:50;7.47;;;4.60;;
3369;SDS011;42042;51.948;7.628;2023-04-25T06:28:17;15.13;;;4.65;;
3369;SDS011;42042;51.948;7.628;2023-04-25T06:30:44;9.90;;;5.13;;
3369;SDS011;42042;51.948;7.628;2023-04-25T06:33:13;14.20;;;4.97;;
3369;SDS011;42042;51.948;7.628;2023-04-25T06:35:40;17.38;;;5.70;;
3369;SDS011;42042;51.948;7.628;2023-04-25T06:38:07;24.10;;;5.55;;
3369;SDS011;42042;51.948;7.628;2023-04-25T06:40:35;12.50;;;4.20;;
3369;SDS011;42042;51.948;7.628;2023-04-25T06:43:02;15.90;;;4.43;;
3369;SDS011;42042;51.948;7.628;2023-04-25T06:45:29;20.67;;;4.90;;
3369;SDS011;42042;51.948;7.628;2023-04-25T06:47:56;11.88;;;4.47;;
3369;SDS011;42042;51.948;7.628;2023-04-25T06:50:25;15.88;;;4.00;;
3369;SDS011;42042;51.948;7.628;2023-04-25T06:52:52;28.48;;;7.53;;
3369;SDS011;42042;51.948;7.628;2023-04-25T06:55:19;8.85;;;3.85;;
3369;SDS011;42042;51.948;7.628;2023-04-25T06:57:47;17.27;;;4.93;;
3369;SDS011;42042;51.948;7.628;2023-04-25T07:00:14;16.90;;;4.40;;
3369;SDS011;42042;51.948;7.628;2023-04-25T07:02:41;11.45;;;4.57;;
3369;SDS011;42042;51.948;7.628;2023-04-25T07:05:09;19.08;;;4.00;;
3369;SDS011;42042;51.948;7.628;2023-04-25T07:07:37;11.60;;;4.72;;
3369;SDS011;42042;51.948;7.628;2023-04-25T07:10:05;17.10;;;4.60;;
3369;SDS011;42042;51.948;7.628;2023-04-25T07:12:32;12.18;;;4.43;;
3369;SDS011;42042;51.948;7.628;2023-04-25T07:14:59;11.88;;;4.43;;
3369;SDS011;42042;51.948;7.628;2023-04-25T07:17:31;8.05;;;3.55;;
3369;SDS011;42042;51.948;7.628;2023-04-25T07:19:58;10.25;;;4.20;;
3369;SDS011;42042;51.948;7.628;2023-04-25T07:22:25;14.05;;;3.88;;
3369;SDS011;42042;51.948;7.628;2023-04-25T07:24:54;7.22;;;3.30;;
3369;SDS011;42042;51.948;7.628;2023-04-25T07:27:21;10.02;;;3.95;;
3369;SDS011;42042;51.948;7.628;2023-04-25T07:29:48;9.13;;;4.30;;
3369;SDS011;42042;51.948;7.628;2023-04-25T07:32:15;9.73;;;3.92;;
3369;SDS011;42042;51.948;7.628;2023-04-25T07:34:42;15.88;;;5.35;;
3369;SDS011;42042;51.948;7.628;2023-04-25T07:37:10;9.45;;;3.40;;
3369;SDS011;42042;51.948;7.628;2023-04-25T07:39:37;7.88;;;4.43;;
3369;SDS011;42042;51.948;7.628;2023-04-25T07:42:06;8.98;;;3.53;;
3369;SDS011;42042;51.948;7.628;2023-04-25T07:44:33;10.15;;;3.60;;
3369;SDS011;42042;51.948;7.628;2023-04-25T07:47:03;8.48;;;3.05;;
3369;SDS011;42042;51.948;7.628;2023-04-25T07:49:31;9.70;;;3.88;;
3369;SDS011;42042;51.948;7.628;2023-04-25T07:51:59;11.15;;;2.95;;
3369;SDS011;42042;51.948;7.628;2023-04-25T07:54:26;7.20;;;3.28;;
3369;SDS011;42042;51.948;7.628;2023-04-25T07:56:54;5.10;;;3.30;;
3369;SDS011;42042;51.948;7.628;2023-04-25T07:59:22;11.30;;;3.47;;
3369;SDS011;42042;51.948;7.628;2023-04-25T08:01:49;8.45;;;3.00;;
3369;SDS011;42042;51.948;7.628;2023-04-25T08:04:17;15.98;;;4.13;;
3369;SDS011;42042;51.948;7.628;2023-04-25T08:06:44;10.63;;;3.65;;
3369;SDS011;42042;51.948;7.628;2023-04-25T08:09:11;8.40;;;3.30;;
3369;SDS011;42042;51.948;7.628;2023-04-25T08:11:38;6.97;;;3.40;;
3369;SDS011;42042;51.948;7.628;2023-04-25T08:14:06;10.73;;;3.40;;
3369;SDS011;42042;51.948;7.628;2023-04-25T08:16:35;7.95;;;3.50;;
3369;SDS011;42042;51.948;7.628;2023-04-25T08:19:02;11.18;;;3.50;;
3369;SDS011;42042;51.948;7.628;2023-04-25T08:21:30;7.10;;;3.42;;
3369;SDS011;42042;51.948;7.628;2023-04-25T08:23:57;10.90;;;4.70;;
3369;SDS011;42042;51.948;7.628;2023-04-25T08:26:25;3.77;;;2.40;;
3369;SDS011;42042;51.948;7.628;2023-04-25T08:28:52;9.13;;;3.60;;
3369;SDS011;42042;51.948;7.628;2023-04-25T08:31:19;7.97;;;3.50;;
3369;SDS011;42042;51.948;7.628;2023-04-25T08:33:48;10.13;;;3.60;;
3369;SDS011;42042;51.948;7.628;2023-04-25T08:36:16;7.03;;;3.07;;
3369;SDS011;42042;51.948;7.628;2023-04-25T08:38:44;12.43;;;2.83;;
3369;SDS011;42042;51.948;7.628;2023-04-25T08:41:11;6.18;;;3.15;;
3369;SDS011;42042;51.948;7.628;2023-04-25T08:43:38;8.20;;;3.30;;
3369;SDS011;42042;51.948;7.628;2023-04-25T08:46:08;10.90;;;3.60;;
3369;SDS011;42042;51.948;7.628;2023-04-25T08:48:36;5.80;;;3.00;;
3369;SDS011;42042;51.948;7.628;2023-04-25T08:51:05;6.43;;;2.47;;
3369;SDS011;42042;51.948;7.628;2023-04-25T08:53:33;8.13;;;2.80;;
3369;SDS011;42042;51.948;7.628;2023-04-25T08:56:01;4.13;;;2.65;;
3369;SDS011;42042;51.948;7.628;2023-04-25T08:58:28;8.57;;;3.20;;
3369;SDS011;42042;51.948;7.628;2023-04-25T09:00:55;10.18;;;2.25;;
3369;SDS011;42042;51.948;7.628;2023-04-25T09:03:23;9.02;;;2.47;;
3369;SDS011;42042;51.948;7.628;2023-04-25T09:08:38;5.97;;;2.30;;
3369;SDS011;42042;51.948;7.628;2023-04-25T09:11:06;4.28;;;2.85;;
3369;SDS011;42042;51.948;7.628;2023-04-25T09:13:33;5.20;;;2.57;;
3369;SDS011;42042;51.948;7.628;2023-04-25T09:16:00;8.03;;;3.07;;
3369;SDS011;42042;51.948;7.628;2023-04-25T09:18:28;6.70;;;2.80;;
3369;SDS011;42042;51.948;7.628;2023-04-25T09:20:56;4.70;;;2.40;;
3369;SDS011;42042;51.948;7.628;2023-04-25T09:23:24;5.77;;;2.63;;
3369;SDS011;42042;51.948;7.628;2023-04-25T09:25:52;4.57;;;2.05;;
3369;SDS011;42042;51.948;7.628;2023-04-25T09:28:23;6.85;;;2.58;;
3369;SDS011;42042;51.948;7.628;2023-04-25T09:30:54;7.40;;;2.80;;
3369;SDS011;42042;51.948;7.628;2023-04-25T09:33:26;8.30;;;2.17;;
3369;SDS011;42042;51.948;7.628;2023-04-25T09:35:53;8.90;;;2.27;;
3369;SDS011;42042;51.948;7.628;2023-04-25T09:38:21;4.57;;;2.20;;
3369;SDS011;42042;51.948;7.628;2023-04-25T09:40:48;7.47;;;2.33;;
3369;SDS011;42042;51.948;7.628;2023-04-25T09:43:21;6.07;;;2.20;;
3369;SDS011;42042;51.948;7.628;2023-04-25T09:45:48;5.50;;;2.70;;
3369;SDS011;42042;51.948;7.628;2023-04-25T09:48:16;10.33;;;5.13;;
3369;SDS011;42042;51.948;7.628;2023-04-25T09:50:45;5.50;;;2.10;;
3369;SDS011;42042;51.948;7.628;2023-04-25T09:53:12;2.83;;;2.20;;
3369;SDS011;42042;51.948;7.628;2023-04-25T09:55:45;3.10;;;1.93;;
3369;SDS011;42042;51.948;7.628;2023-04-25T09:58:13;2.53;;;2.33;;
3369;SDS011;42042;51.948;7.628;2023-04-25T10:00:42;7.38;;;1.95;;
3369;SDS011;42042;51.948;7.628;2023-04-25T10:03:09;4.80;;;1.77;;
3369;SDS011;42042;51.948;7.628;2023-04-25T10:05:37;3.35;;;1.95;;
3369;SDS011;42042;51.948;7.628;2023-04-25T10:08:05;4.93;;;1.87;;
3369;SDS011;42042;51.948;7.628;2023-04-25T10:10:33;5.50;;;2.20;;
3369;SDS011;42042;51.948;7.628;2023-04-25T10:13:04;5.40;;;2.50;;
3369;SDS011;42042;51.948;7.628;2023-04-25T10:15:34;7.27;;;2.70;;
3369;SDS011;42042;51.948;7.628;2023-04-25T10:18:03;6.60;;;2.10;;
3369;SDS011;42042;51.948;7.628;2023-04-25T10:20:31;9.03;;;2.27;;
3369;SDS011;42042;51.948;7.628;2023-04-25T10:23:04;5.23;;;2.90;;
3369;SDS011;42042;51.948;7.628;2023-04-25T10:25:33;16.87;;;2.80;;
3369;SDS011;42042;51.948;7.628;2023-04-25T10:28:00;9.57;;;2.40;;
3369;SDS011;42042;51.948;7.628;2023-04-25T10:30:28;6.13;;;2.47;;
3369;SDS011;42042;51.948;7.628;2023-04-25T10:32:55;3.33;;;2.10;;
3369;SDS011;42042;51.948;7.628;2023-04-25T10:35:26;9.10;;;2.37;;
3369;SDS011;42042;51.948;7.628;2023-04-25T10:38:02;4.40;;;2.00;;
3369;SDS011;42042;51.948;7.628;2023-04-25T10:40:30;7.30;;;1.90;;
3369;SDS011;42042;51.948;7.628;2023-04-25T10:45:50;5.70;;;2.50;;
3369;SDS011;42042;51.948;7.628;2023-04-25T10:48:24;4.33;;;1.87;;
3369;SDS011;42042;51.948;7.628;2023-04-25T10:51:02;3.07;;;2.37;;
3369;SDS011;42042;51.948;7.628;2023-04-25T10:53:33;10.77;;;3.20;;
3369;SDS011;42042;51.948;7.628;2023-04-25T10:56:00;7.47;;;2.23;;
3369;SDS011;42042;51.948;7.628;2023-04-25T10:58:35;4.13;;;1.77;;
3369;SDS011;42042;51.948;7.628;2023-04-25T11:01:03;6.97;;;2.37;;
3369;SDS011;42042;51.948;7.628;2023-04-25T11:03:30;5.80;;;2.03;;
3369;SDS011;42042;51.948;7.628;2023-04-25T11:05:57;4.50;;;2.55;;
3369;SDS011;42042;51.948;7.628;2023-04-25T11:08:31;4.20;;;2.50;;
3369;SDS011;42042;51.948;7.628;2023-04-25T11:11:04;6.50;;;2.03;;
3369;SDS011;42042;51.948;7.628;2023-04-25T11:13:31;7.17;;;2.10;;
3369;SDS011;42042;51.948;7.628;2023-04-25T11:15:58;5.05;;;2.40;;
3369;SDS011;42042;51.948;7.628;2023-04-25T11:18:25;11.23;;;4.67;;
3369;SDS011;42042;51.948;7.628;2023-04-25T11:20:53;3.90;;;2.17;;
3369;SDS011;42042;51.948;7.628;2023-04-25T11:23:20;5.05;;;2.20;;
3369;SDS011;42042;51.948;7.628;2023-04-25T11:25:48;6.72;;;2.50;;
3369;SDS011;42042;51.948;7.628;2023-04-25T11:28:20;6.63;;;2.15;;
3369;SDS011;42042;51.948;7.628;2023-04-25T11:30:48;5.30;;;2.17;;
3369;SDS011;42042;51.948;7.628;2023-04-25T11:33:15;8.13;;;2.30;;
3369;SDS011;42042;51.948;7.628;2023-04-25T11:35:42;8.00;;;2.97;;
3369;SDS011;42042;51.948;7.628;2023-04-25T11:38:10;8.27;;;2.20;;
3369;SDS011;42042;51.948;7.628;2023-04-25T11:40:37;7.35;;;2.60;;
3369;SDS011;42042;51.948;7.628;2023-04-25T11:43:06;5.70;;;2.20;;
3369;SDS011;42042;51.948;7.628;2023-04-25T11:45:33;5.60;;;2.23;;
3369;SDS011;42042;51.948;7.628;2023-04-25T11:48:01;7.87;;;2.30;;
3369;SDS011;42042;51.948;7.628;2023-04-25T11:50:28;5.00;;;1.83;;
3369;SDS011;42042;51.948;7.628;2023-04-25T11:52:56;4.10;;;1.65;;
3369;SDS011;42042;51.948;7.628;2023-04-25T11:55:23;2.43;;;1.73;;
3369;SDS011;42042;51.948;7.628;2023-04-25T11:57:50;8.60;;;2.13;;
3369;SDS011;42042;51.948;7.628;2023-04-25T12:00:20;4.40;;;2.17;;
3369;SDS011;42042;51.948;7.628;2023-04-25T12:02:50;5.82;;;2.55;;
3369;SDS011;42042;51.948;7.628;2023-04-25T12:05:18;2.70;;;1.50;;
3369;SDS011;42042;51.948;7.628;2023-04-25T12:07:46;2.03;;;1.55;;
3369;SDS011;42042;51.948;7.628;2023-04-25T12:10:14;2.23;;;1.67;;
3369;SDS011;42042;51.948;7.628;2023-04-25T12:12:42;3.50;;;2.33;;
3369;SDS011;42042;51.948;7.628;2023-04-25T12:15:10;1.53;;;1.40;;
3369;SDS011;42042;51.948;7.628;2023-04-25T12:17:39;2.53;;;1.50;;
3369;SDS011;42042;51.948;7.628;2023-04-25T12:20:07;2.83;;;1.50;;
3369;SDS011;42042;51.948;7.628;2023-04-25T12:22:34;6.37;;;1.73;;
3369;SDS011;42042;51.948;7.628;2023-04-25T12:25:02;3.97;;;1.80;;
3369;SDS011;42042;51.948;7.628;2023-04-25T12:27:30;2.97;;;1.90;;
3369;SDS011;42042;51.948;7.628;2023-04-25T12:29:58;5.23;;;1.97;;
3369;SDS011;42042;51.948;7.628;2023-04-25T12:32:26;3.73;;;1.60;;
3369;SDS011;42042;51.948;7.628;2023-04-25T12:34:55;2.27;;;2.00;;
3369;SDS011;42042;51.948;7.628;2023-04-25T12:37:23;10.70;;;1.97;;
3369;SDS011;42042;51.948;7.628;2023-04-25T12:39:50;4.10;;;2.20;;
3369;SDS011;42042;51.948;7.628;2023-04-25T12:42:17;2.30;;;1.57;;
3369;SDS011;42042;51.948;7.628;2023-04-25T12:44:44;4.30;;;1.90;;
3369;SDS011;42042;51.948;7.628;2023-04-25T12:47:12;3.50;;;2.20;;
3369;SDS011;42042;51.948;7.628;2023-04-25T12:49:39;4.90;;;2.13;;
3369;SDS011;42042;51.948;7.628;2023-04-25T12:52:08;3.77;;;2.00;;
3369;SDS011;42042;51.948;7.628;2023-04-25T12:54:35;4.40;;;1.73;;
3369;SDS011;42042;51.948;7.628;2023-04-25T12:57:03;2.20;;;1.87;;
3369;SDS011;42042;51.948;7.628;2023-04-25T12:59:30;4.47;;;2.10;;
3369;SDS011;42042;51.948;7.628;2023-04-25T13:01:57;3.60;;;2.30;;
3369;SDS011;42042;51.948;7.628;2023-04-25T13:04:25;4.67;;;2.67;;
3369;SDS011;42042;51.948;7.628;2023-04-25T13:06:52;5.27;;;2.30;;
3369;SDS011;42042;51.948;7.628;2023-04-25T13:09:21;5.87;;;3.00;;
3369;SDS011;42042;51.948;7.628;2023-04-25T13:11:48;2.97;;;1.80;;
3369;SDS011;42042;51.948;7.628;2023-04-25T13:14:15;6.13;;;2.17;;
3369;SDS011;42042;51.948;7.628;2023-04-25T13:16:43;5.67;;;2.20;;
3369;SDS011;42042;51.948;7.628;2023-04-25T13:19:10;8.70;;;2.63;;
3369;SDS011;42042;51.948;7.628;2023-04-25T13:21:37;4.43;;;2.17;;
3369;SDS011;42042;51.948;7.628;2023-04-25T13:24:05;6.13;;;2.33;;
3369;SDS011;42042;51.948;7.628;2023-04-25T13:26:33;4.20;;;1.87;;
3369;SDS011;42042;51.948;7.628;2023-04-25T13:29:01;5.30;;;2.80;;
3369;SDS011;42042;51.948;7.628;2023-04-25T13:31:29;3.57;;;2.10;;
3369;SDS011;42042;51.948;7.628;2023-04-25T13:33:56;4.73;;;2.13;;
3369;SDS011;42042;51.948;7.628;2023-04-25T13:36:23;2.20;;;2.00;;
3369;SDS011;42042;51.948;7.628;2023-04-25T13:38:51;4.43;;;2.10;;
3369;SDS011;42042;51.948;7.628;2023-04-25T13:41:18;2.97;;;1.90;;
3369;SDS011;42042;51.948;7.628;2023-04-25T13:43:47;2.73;;;1.93;;
3369;SDS011;42042;51.948;7.628;2023-04-25T13:46:14;4.77;;;1.83;;
3369;SDS011;42042;51.948;7.628;2023-04-25T13:48:41;3.77;;;2.27;;
3369;SDS011;42042;51.948;7.628;2023-04-25T13:51:12;3.95;;;1.80;;
3369;SDS011;42042;51.948;7.628;2023-04-25T13:53:39;7.57;;;2.07;;
3369;SDS011;42042;51.948;7.628;2023-04-25T13:56:06;2.53;;;1.80;;
3369;SDS011;42042;51.948;7.628;2023-04-25T13:58:34;3.50;;;1.60;;
3369;SDS011;42042;51.948;7.628;2023-04-25T14:01:02;7.23;;;2.67;;
3369;SDS011;42042;51.948;7.628;2023-04-25T14:03:30;3.50;;;1.70;;
3369;SDS011;42042;51.948;7.628;2023-04-25T14:05:57;6.17;;;2.37;;
3369;SDS011;42042;51.948;7.628;2023-04-25T14:08:24;4.43;;;1.93;;
3369;SDS011;42042;51.948;7.628;2023-04-25T14:10:52;5.43;;;2.60;;
3369;SDS011;42042;51.948;7.628;2023-04-25T14:13:19;4.33;;;1.87;;
3369;SDS011;42042;51.948;7.628;2023-04-25T14:15:46;7.67;;;1.70;;
3369;SDS011;42042;51.948;7.628;2023-04-25T14:18:16;3.80;;;2.00;;
3369;SDS011;42042;51.948;7.628;2023-04-25T14:20:43;4.47;;;2.00;;
3369;SDS011;42042;51.948;7.628;2023-04-25T14:23:10;3.37;;;1.77;;
3369;SDS011;42042;51.948;7.628;2023-04-25T14:25:38;5.00;;;2.20;;
3369;SDS011;42042;51.948;7.628;2023-04-25T14:28:06;4.23;;;1.80;;
3369;SDS011;42042;51.948;7.628;2023-04-25T14:30:34;7.90;;;1.90;;
3369;SDS011;42042;51.948;7.628;2023-04-25T14:33:01;2.10;;;1.60;;
3369;SDS011;42042;51.948;7.628;2023-04-25T14:35:29;2.57;;;1.87;;
3369;SDS011;42042;51.948;7.628;2023-04-25T14:37:57;5.07;;;1.67;;
3369;SDS011;42042;51.948;7.628;2023-04-25T14:40:25;4.20;;;2.30;;
3369;SDS011;42042;51.948;7.628;2023-04-25T14:42:52;2.23;;;1.63;;
3369;SDS011;42042;51.948;7.628;2023-04-25T14:45:19;2.53;;;2.00;;
3369;SDS011;42042;51.948;7.628;2023-04-25T14:47:46;2.50;;;1.70;;
3369;SDS011;42042;51.948;7.628;2023-04-25T14:50:13;9.90;;;2.73;;
3369;SDS011;42042;51.948;7.628;2023-04-25T14:52:42;6.40;;;2.23;;
3369;SDS011;42042;51.948;7.628;2023-04-25T14:55:10;5.27;;;2.00;;
3369;SDS011;42042;51.948;7.628;2023-04-25T14:57:37;5.73;;;1.70;;
3369;SDS011;42042;51.948;7.628;2023-04-25T15:00:05;2.37;;;2.00;;
3369;SDS011;42042;51.948;7.628;2023-04-25T15:02:34;3.90;;;2.07;;
3369;SDS011;42042;51.948;7.628;2023-04-25T15:05:01;5.70;;;1.80;;